Time;durP1;ratioP1;P1;durP2;ratioP2;P2;SDS_P1;SDS_P2;PMS_P1;PMS_P2;Temp;Humidity;BMP_temperature;BMP_pressure;BME280_temperature;BME280_humidity;BME280_pressure;Samples;Min_cycle;Max_cycle;Signal;HPM_P1;HPM_P2
2020/12/17 00:00:53;;;;;;;16.10;9.77;;;;;;;;;;4907568;29;20233;-86
2020/12/17 00:03:19;;;;;;;12.60;8.10;;;;;;;;;;4910255;29;20314;-86
2020/12/17 00:05:45;;;;;;;17.93;9.17;;;6.80;95.70;;;;;;4901417;29;20188;-86
2020/12/17 00:08:11;;;;;;;14.60;7.57;;;;;;;;;;4918847;29;20223;-87
2020/12/17 00:10:39;;;;;;;14.37;8.53;;;;;;;;;;4900400;29;20200;-87
2020/12/17 00:13:05;;;;;;;12.57;8.47;;;;;;;;;;4904104;29;20191;-87
2020/12/17 00:15:30;;;;;;;18.37;8.80;;;6.80;95.70;;;;;;4908023;29;20252;-87
2020/12/17 00:17:56;;;;;;;11.70;7.77;;;6.80;95.60;;;;;;4891212;29;20221;-86
2020/12/17 00:20:23;;;;;;;13.60;8.10;;;6.80;95.40;;;;;;4909846;29;20195;-87
2020/12/17 00:22:49;;;;;;;11.60;7.83;;;;;;;;;;4905299;29;20239;-87
2020/12/17 00:25:17;;;;;;;12.87;7.77;;;6.70;95.30;;;;;;4899802;29;20198;-87
2020/12/17 00:27:44;;;;;;;13.23;7.37;;;;;;;;;;4904054;29;20291;-87
2020/12/17 00:30:13;;;;;;;10.47;6.63;;;6.70;95.30;;;;;;4912065;29;20200;-86
2020/12/17 00:32:40;;;;;;;11.03;7.67;;;;;;;;;;4903237;29;20198;-87
2020/12/17 00:35:06;;;;;;;10.93;6.80;;;6.60;95.20;;;;;;4903479;29;20193;-87
2020/12/17 00:37:33;;;;;;;12.57;7.13;;;;;;;;;;4898640;29;20192;-87
2020/12/17 00:39:59;;;;;;;12.70;8.00;;;6.60;95.40;;;;;;4895485;29;20577;-87
2020/12/17 00:42:24;;;;;;;12.43;7.40;;;6.60;95.30;;;;;;4905885;29;20224;-87
2020/12/17 00:44:50;;;;;;;12.23;7.57;;;6.50;95.20;;;;;;4900424;29;20199;-87
2020/12/17 00:47:16;;;;;;;10.70;7.63;;;6.50;95.20;;;;;;4900378;29;20236;-87
2020/12/17 00:49:43;;;;;;;12.57;7.43;;;6.40;95.30;;;;;;4892511;29;20212;-86
2020/12/17 00:52:09;;;;;;;14.67;8.47;;;6.40;95.60;;;;;;4891986;29;21134;-87
2020/12/17 00:54:38;;;;;;;11.97;7.63;;;6.40;95.70;;;;;;4898194;29;20184;-87
2020/12/17 00:57:04;;;;;;;14.07;8.77;;;;;;;;;;4898891;29;20212;-87
2020/12/17 00:59:30;;;;;;;9.90;7.77;;;;;;;;;;4901463;29;20204;-87
2020/12/17 01:01:56;;;;;;;13.53;8.77;;;;;;;;;;4897405;29;20683;-87
2020/12/17 01:04:22;;;;;;;12.97;8.30;;;6.50;96.00;;;;;;4899236;29;20207;-86
2020/12/17 01:06:48;;;;;;;13.03;8.07;;;;;;;;;;4905783;29;20215;-86
2020/12/17 01:09:14;;;;;;;15.60;7.83;;;6.50;96.20;;;;;;4897322;29;20665;-88
2020/12/17 01:11:40;;;;;;;13.40;7.53;;;;;;;;;;4886491;29;20260;-86
2020/12/17 01:14:06;;;;;;;13.00;7.37;;;;;;;;;;4891848;29;20264;-87
2020/12/17 01:16:31;;;;;;;11.10;6.77;;;6.50;96.40;;;;;;4898491;29;20170;-88
2020/12/17 01:18:57;;;;;;;12.07;7.47;;;6.40;96.40;;;;;;4905701;29;20579;-87
2020/12/17 01:21:23;;;;;;;10.73;6.70;;;;;;;;;;4904710;29;20180;-88
2020/12/17 01:23:49;;;;;;;10.60;6.67;;;6.40;96.70;;;;;;4900608;29;20188;-87
2020/12/17 01:26:15;;;;;;;9.00;6.33;;;;;;;;;;4898745;29;20212;-87
2020/12/17 01:28:41;;;;;;;13.13;7.07;;;6.40;96.80;;;;;;4918901;29;20193;-87
2020/12/17 01:31:14;;;;;;;11.33;5.70;;;6.40;96.90;;;;;;4916389;29;20191;-87
2020/12/17 01:33:41;;;;;;;6.57;4.97;;;6.40;96.90;;;;;;4906367;29;20202;-87
2020/12/17 01:36:09;;;;;;;9.80;6.83;;;6.40;97.30;;;;;;4917895;29;20189;-87
2020/12/17 01:38:36;;;;;;;11.57;7.40;;;6.40;97.10;;;;;;4918633;29;20176;-87
2020/12/17 01:41:06;;;;;;;10.07;6.97;;;6.40;97.20;;;;;;4897778;29;20201;-87
2020/12/17 01:43:37;;;;;;;10.40;6.00;;;6.30;97.10;;;;;;4904721;29;20223;-87
2020/12/17 01:46:03;;;;;;;8.03;6.90;;;6.30;97.30;;;;;;4896421;29;20212;-87
2020/12/17 01:48:29;;;;;;;9.10;6.67;;;6.30;97.30;;;;;;4910860;29;20194;-88
2020/12/17 01:50:55;;;;;;;9.97;6.87;;;6.30;97.60;;;;;;4895745;29;20203;-87
2020/12/17 01:53:20;;;;;;;11.47;7.10;;;6.30;97.90;;;;;;4911403;29;20670;-87
2020/12/17 01:55:46;;;;;;;9.90;6.60;;;6.30;98.10;;;;;;4910357;29;20212;-88
2020/12/17 01:58:18;;;;;;;9.90;6.87;;;6.50;98.20;;;;;;4910574;29;20226;-87
2020/12/17 02:00:52;;;;;;;12.77;7.57;;;6.40;97.90;;;;;;4905238;29;20259;-87
2020/12/17 02:03:18;;;;;;;9.60;6.40;;;;;;;;;;4892290;29;20301;-87
2020/12/17 02:05:43;;;;;;;9.17;5.83;;;6.30;98.00;;;;;;4902003;29;20199;-88
2020/12/17 02:08:13;;;;;;;11.43;7.07;;;6.30;98.10;;;;;;4897721;29;20315;-88
2020/12/17 02:10:39;;;;;;;8.93;6.10;;;;;;;;;;4905823;29;20195;-88
2020/12/17 02:13:05;;;;;;;11.67;6.07;;;;;;;;;;4898009;29;20287;-87
2020/12/17 02:15:31;;;;;;;10.37;7.03;;;6.40;97.80;;;;;;4894329;29;20206;-87
2020/12/17 02:17:57;;;;;;;10.60;6.83;;;;;;;;;;4906417;29;20199;-87
2020/12/17 02:20:22;;;;;;;10.63;7.10;;;6.30;97.90;;;;;;4908487;29;20223;-87
2020/12/17 02:22:48;;;;;;;12.07;7.03;;;;;;;;;;4898641;29;20249;-87
2020/12/17 02:25:15;;;;;;;11.40;7.43;;;6.20;97.80;;;;;;4906869;29;20213;-87
2020/12/17 02:27:41;;;;;;;10.27;6.83;;;6.20;97.90;;;;;;4906227;29;20216;-87
2020/12/17 02:30:09;;;;;;;9.07;7.23;;;6.20;98.30;;;;;;4904577;29;20619;-87
2020/12/17 02:32:35;;;;;;;9.67;7.27;;;6.20;98.50;;;;;;4907628;29;20194;-87
2020/12/17 02:35:01;;;;;;;12.93;7.00;;;;;;;;;;4903732;29;20292;-87
2020/12/17 02:37:27;;;;;;;10.83;7.43;;;6.20;98.50;;;;;;4913022;29;20197;-87
2020/12/17 02:39:53;;;;;;;10.00;6.23;;;;;;;;;;4917441;29;20243;-87
2020/12/17 02:42:19;;;;;;;8.57;6.50;;;6.20;98.50;;;;;;4902312;29;20647;-87
2020/12/17 02:44:44;;;;;;;11.90;7.53;;;6.20;98.50;;;;;;4889254;29;20204;-87
2020/12/17 02:47:10;;;;;;;10.73;7.83;;;6.20;98.50;;;;;;4892322;29;20227;-87
2020/12/17 02:49:36;;;;;;;13.60;7.70;;;6.20;98.50;;;;;;4905515;29;20185;-87
2020/12/17 02:52:01;;;;;;;14.57;7.13;;;6.30;98.70;;;;;;4900887;29;20191;-87
2020/12/17 02:54:27;;;;;;;14.27;8.33;;;6.30;98.80;;;;;;4900433;29;20199;-87
2020/12/17 02:56:52;;;;;;;11.20;7.30;;;6.30;98.80;;;;;;4898869;29;20676;-87
2020/12/17 02:59:18;;;;;;;11.67;7.70;;;6.30;98.70;;;;;;4894768;29;20204;-87
2020/12/17 03:01:44;;;;;;;13.70;7.63;;;6.30;98.90;;;;;;4900833;29;20309;-87
2020/12/17 03:04:10;;;;;;;10.07;6.37;;;6.30;98.80;;;;;;4904517;29;20250;-87
2020/12/17 03:06:36;;;;;;;9.60;6.87;;;6.30;98.70;;;;;;4890491;29;20206;-87
2020/12/17 03:09:04;;;;;;;12.03;7.33;;;6.20;98.60;;;;;;4898172;29;20186;-87
2020/12/17 03:11:29;;;;;;;9.83;6.57;;;6.30;98.90;;;;;;4903535;29;20215;-87
2020/12/17 03:13:55;;;;;;;12.53;7.53;;;;;;;;;;4907977;29;20223;-87
2020/12/17 03:16:21;;;;;;;12.73;7.10;;;;;;;;;;4888357;29;20204;-87
2020/12/17 03:18:47;;;;;;;11.83;7.37;;;6.40;98.80;;;;;;4900359;29;20283;-87
2020/12/17 03:21:13;;;;;;;11.00;6.70;;;;;;;;;;4914360;29;20664;-87
2020/12/17 03:23:39;;;;;;;14.77;7.53;;;6.30;98.90;;;;;;4889539;29;20224;-87
2020/12/17 03:26:05;;;;;;;12.83;8.07;;;;;;;;;;4891080;29;20189;-87
2020/12/17 03:28:31;;;;;;;15.20;7.50;;;;;;;;;;4903120;29;20211;-87
2020/12/17 03:30:57;;;;;;;13.10;7.33;;;;;;;;;;4890901;29;20209;-88
2020/12/17 03:33:23;;;;;;;16.67;7.83;;;;;;;;;;4902870;29;20201;-87
2020/12/17 03:35:49;;;;;;;13.80;7.63;;;6.20;98.50;;;;;;4904808;29;20176;-87
2020/12/17 03:38:15;;;;;;;12.67;7.33;;;;;;;;;;4907031;29;20185;-87
2020/12/17 03:40:41;;;;;;;11.67;8.17;;;;;;;;;;4904595;29;20196;-87
2020/12/17 03:43:06;;;;;;;10.53;7.40;;;6.10;98.40;;;;;;4902204;29;20315;-88
2020/12/17 03:45:32;;;;;;;14.27;7.50;;;;;;;;;;4891068;29;20248;-87
2020/12/17 03:47:58;;;;;;;10.67;7.60;;;6.10;98.40;;;;;;4896584;29;20217;-87
2020/12/17 03:50:24;;;;;;;9.73;6.37;;;;;;;;;;4901265;29;20196;-87
2020/12/17 03:52:50;;;;;;;10.47;7.00;;;;;;;;;;4902420;29;20287;-88
2020/12/17 03:55:16;;;;;;;10.97;7.23;;;5.90;98.40;;;;;;4897681;29;20295;-87
2020/12/17 03:57:42;;;;;;;10.70;6.73;;;;;;;;;;4919514;29;20670;-87
2020/12/17 04:00:07;;;;;;;9.97;6.40;;;5.80;98.30;;;;;;4898976;29;20619;-87
2020/12/17 04:02:33;;;;;;;11.23;7.30;;;5.70;98.30;;;;;;4903199;29;20255;-86
2020/12/17 04:04:59;;;;;;;9.93;6.97;;;;;;;;;;4902058;29;20207;-87
2020/12/17 04:07:25;;;;;;;10.53;7.40;;;;;;;;;;4899108;29;20217;-87
2020/12/17 04:09:51;;;;;;;10.03;7.00;;;;;;;;;;4899132;29;20212;-87
2020/12/17 04:12:17;;;;;;;8.77;5.97;;;;;;;;;;4893335;29;20217;-87
2020/12/17 04:14:43;;;;;;;11.23;6.63;;;5.80;97.70;;;;;;4913318;29;20641;-87
2020/12/17 04:17:09;;;;;;;10.20;6.60;;;5.80;96.90;;;;;;4903979;29;20188;-87
2020/12/17 04:19:34;;;;;;;9.03;6.87;;;5.70;96.50;;;;;;4903369;29;20193;-87
2020/12/17 04:22:00;;;;;;;8.17;6.80;;;5.70;96.60;;;;;;4901019;29;20288;-87
2020/12/17 04:24:26;;;;;;;11.97;7.63;;;;;;;;;;4890465;29;20248;-87
2020/12/17 04:26:52;;;;;;;13.53;6.03;;;5.60;96.40;;;;;;4892998;29;20212;-87
2020/12/17 04:29:19;;;;;;;13.73;7.53;;;5.60;96.60;;;;;;4894055;29;20181;-87
2020/12/17 04:31:45;;;;;;;13.53;7.10;;;;;;;;;;4910138;29;20207;-87
2020/12/17 04:34:11;;;;;;;10.80;7.23;;;5.60;95.90;;;;;;4894918;29;20197;-87
2020/12/17 04:36:37;;;;;;;8.90;6.73;;;5.50;95.90;;;;;;4898031;29;20248;-87
2020/12/17 04:39:04;;;;;;;9.70;6.67;;;5.40;95.90;;;;;;4918868;29;20231;-87
2020/12/17 04:41:32;;;;;;;12.10;8.27;;;5.40;95.90;;;;;;4900031;29;20202;-87
2020/12/17 04:43:58;;;;;;;11.57;6.90;;;5.30;96.00;;;;;;4900899;29;20571;-86
2020/12/17 04:46:26;;;;;;;10.80;5.90;;;5.30;95.90;;;;;;4902971;29;20200;-86
2020/12/17 04:48:53;;;;;;;11.07;6.50;;;5.30;96.20;;;;;;4900610;29;20193;-86
2020/12/17 04:51:20;;;;;;;10.03;6.37;;;5.30;96.10;;;;;;4890942;29;20192;-86
2020/12/17 04:53:47;;;;;;;10.70;6.70;;;5.20;96.10;;;;;;4906604;29;20196;-87
2020/12/17 04:56:15;;;;;;;11.63;7.17;;;5.20;96.40;;;;;;4904926;29;20199;-87
2020/12/17 04:58:46;;;;;;;7.63;6.27;;;5.30;96.40;;;;;;4906296;29;20216;-87
2020/12/17 05:01:18;;;;;;;9.37;6.30;;;5.20;96.30;;;;;;4893626;29;20198;-87
2020/12/17 05:03:48;;;;;;;9.67;5.80;;;5.30;96.40;;;;;;4891010;29;20264;-86
2020/12/17 05:06:24;;;;;;;11.70;6.00;;;5.30;96.40;;;;;;4898824;29;20224;-87
2020/12/17 05:08:51;;;;;;;11.40;6.50;;;5.30;96.20;;;;;;4896854;29;20203;-87
2020/12/17 05:11:17;;;;;;;9.60;6.63;;;5.30;96.20;;;;;;4905377;29;20196;-87
2020/12/17 05:13:42;;;;;;;9.17;6.27;;;5.30;95.80;;;;;;4914969;29;20212;-87
2020/12/17 05:16:08;;;;;;;7.20;5.53;;;5.30;95.70;;;;;;4911002;29;20263;-87
2020/12/17 05:18:34;;;;;;;11.50;7.00;;;;;;;;;;4900616;29;20201;-87
2020/12/17 05:21:04;;;;;;;9.47;7.00;;;5.30;95.40;;;;;;4907215;29;20188;-87
2020/12/17 05:23:30;;;;;;;11.60;6.67;;;;;;;;;;4900096;29;20239;-87
2020/12/17 05:25:56;;;;;;;11.27;7.57;;;;;;;;;;4896770;29;20291;-86
2020/12/17 05:28:26;;;;;;;11.50;6.67;;;5.20;94.70;;;;;;4890513;29;20179;-87
2020/12/17 05:30:52;;;;;;;9.57;5.30;;;;;;;;;;4904060;29;20188;-87
2020/12/17 05:33:17;;;;;;;11.90;7.27;;;5.20;94.70;;;;;;4899462;29;20598;-87
2020/12/17 05:35:43;;;;;;;11.30;6.70;;;5.30;94.70;;;;;;4898971;29;20212;-86
2020/12/17 05:38:10;;;;;;;11.97;7.20;;;5.30;94.20;;;;;;4891684;29;20813;-86
2020/12/17 05:40:40;;;;;;;13.03;7.33;;;;;;;;;;4908957;29;20208;-89
2020/12/17 05:43:07;;;;;;;11.53;6.33;;;5.20;94.00;;;;;;4883872;29;20216;-86
2020/12/17 05:45:34;;;;;;;11.17;6.93;;;5.30;93.80;;;;;;4895319;29;20205;-87
2020/12/17 05:48:14;;;;;;;12.13;6.10;;;5.30;93.20;;;;;;4901427;29;20250;-87
2020/12/17 05:51:00;;;;;;;10.80;6.70;;;5.30;93.50;;;;;;4888994;29;20219;-87
2020/12/17 05:53:38;;;;;;;10.60;6.87;;;5.30;93.40;;;;;;4894694;29;20212;-88
2020/12/17 05:56:06;;;;;;;12.50;6.33;;;5.30;93.10;;;;;;4887782;29;20220;-88
2020/12/17 05:58:42;;;;;;;10.53;6.43;;;5.20;93.10;;;;;;4886754;29;20552;-87
2020/12/17 06:01:15;;;;;;;9.27;6.67;;;5.20;93.40;;;;;;4884900;29;20208;-88
2020/12/17 06:03:44;;;;;;;7.97;6.07;;;5.20;93.60;;;;;;4887379;29;20223;-87
2020/12/17 06:06:10;;;;;;;8.23;6.07;;;5.20;93.50;;;;;;4883865;29;20329;-87
2020/12/17 06:08:38;;;;;;;10.23;6.57;;;5.30;93.50;;;;;;4898174;29;20220;-87
2020/12/17 06:11:09;;;;;;;9.10;6.67;;;5.30;93.40;;;;;;4888551;29;20704;-87
2020/12/17 06:13:40;;;;;;;8.90;6.43;;;5.30;93.30;;;;;;4901207;29;20199;-87
2020/12/17 06:16:07;;;;;;;10.77;6.60;;;5.30;93.30;;;;;;4904612;29;20197;-87
2020/12/17 06:18:51;;;;;;;8.63;6.37;;;5.30;93.40;;;;;;4909745;29;20195;-87
2020/12/17 06:21:17;;;;;;;8.20;5.90;;;;;;;;;;4905102;29;20282;-86
2020/12/17 06:23:43;;;;;;;9.73;7.07;;;;;;;;;;4911523;29;20227;-86
2020/12/17 06:26:10;;;;;;;10.70;6.50;;;5.30;93.50;;;;;;4907478;29;20219;-87
2020/12/17 06:28:47;;;;;;;7.80;5.80;;;5.30;93.40;;;;;;4908970;29;20202;-86
2020/12/17 06:31:47;;;;;;;9.63;5.87;;;5.40;93.50;;;;;;4900028;29;20187;-87
2020/12/17 06:34:17;;;;;;;13.27;7.27;;;5.40;93.30;;;;;;4906791;29;20197;-87
2020/12/17 06:36:45;;;;;;;10.30;5.83;;;5.40;93.00;;;;;;4901645;29;20558;-86
2020/12/17 06:39:10;;;;;;;11.03;6.27;;;5.40;93.00;;;;;;4905580;29;20206;-86
2020/12/17 06:41:37;;;;;;;10.27;6.40;;;5.40;92.90;;;;;;4906617;29;20197;-86
2020/12/17 06:44:24;;;;;;;10.17;6.43;;;5.50;92.70;;;;;;4894453;29;20192;-86
2020/12/17 06:46:55;;;;;;;10.67;7.17;;;5.40;92.50;;;;;;4891352;29;20230;-86
2020/12/17 06:49:25;;;;;;;9.90;6.10;;;5.50;92.40;;;;;;4899881;29;20198;-84
2020/12/17 06:52:20;;;;;;;9.83;6.33;;;5.40;92.00;;;;;;4897849;29;20378;-83
2020/12/17 06:54:46;;;;;;;10.33;5.57;;;5.40;92.10;;;;;;4898312;29;20222;-84
2020/12/17 06:57:17;;;;;;;11.47;7.10;;;5.40;91.30;;;;;;4906070;29;20230;-84
2020/12/17 07:00:06;;;;;;;10.30;6.23;;;5.50;91.50;;;;;;4896420;29;20192;-84
2020/12/17 07:02:41;;;;;;;8.67;6.00;;;5.40;91.40;;;;;;4894222;29;20225;-84
2020/12/17 07:05:07;;;;;;;12.40;6.43;;;;;;;;;;4895659;29;20575;-84
2020/12/17 07:07:44;;;;;;;10.10;6.37;;;5.30;91.30;;;;;;4909301;29;20222;-84
2020/12/17 07:10:28;;;;;;;11.40;6.37;;;;;;;;;;4895624;29;20212;-91
2020/12/17 07:12:58;;;;;;;9.60;6.77;;;;;;;;;;4889825;29;20205;-91
2020/12/17 07:16:04;;;;;;;7.37;5.53;;;5.30;92.00;;;;;;4904415;29;20258;-91
2020/12/17 07:18:39;;;;;;;8.80;6.17;;;;;;;;;;4805800;29;20328;-89
2020/12/17 07:21:06;;;;;;;8.77;5.57;;;5.40;91.30;;;;;;4834184;29;20230;-89
2020/12/17 07:23:33;;;;;;;10.03;5.93;;;5.40;91.30;;;;;;4828478;29;20313;-89
2020/12/17 07:26:06;;;;;;;9.03;6.30;;;5.40;91.10;;;;;;4836649;29;20218;-88
2020/12/17 07:28:32;;;;;;;9.17;5.73;;;5.40;91.30;;;;;;4836427;29;20268;-88
2020/12/17 07:30:58;;;;;;;9.70;6.70;;;;;;;;;;4850387;29;20208;-88
2020/12/17 07:33:41;;;;;;;7.83;5.80;;;5.40;91.30;;;;;;4830047;29;20205;-89
2020/12/17 07:36:08;;;;;;;9.03;6.13;;;5.40;91.60;;;;;;4858953;29;20612;-89
2020/12/17 07:38:34;;;;;;;10.93;6.90;;;5.30;91.60;;;;;;4850327;29;20280;-87
2020/12/17 07:41:00;;;;;;;11.47;6.90;;;;;;;;;;4835762;29;20290;-87
2020/12/17 07:43:40;;;;;;;10.30;6.97;;;5.30;92.20;;;;;;4836185;29;20909;-88
2020/12/17 07:46:08;;;;;;;10.37;6.33;;;5.30;92.30;;;;;;4834980;29;20298;-87
2020/12/17 07:48:34;;;;;;;9.97;6.23;;;;;;;;;;4831779;29;20210;-88
2020/12/17 07:51:01;;;;;;;9.50;6.33;;;5.40;92.50;;;;;;4831735;29;20205;-89
2020/12/17 07:53:28;;;;;;;11.83;6.30;;;5.40;92.50;;;;;;4837568;29;20196;-86
2020/12/17 07:55:54;;;;;;;8.47;5.60;;;5.60;92.60;;;;;;4890080;29;20212;-88
2020/12/17 07:58:20;;;;;;;9.83;6.77;;;5.60;92.50;;;;;;4902873;29;20251;-89
2020/12/17 08:00:46;;;;;;;10.87;6.57;;;;;;;;;;4902934;29;20212;-91
2020/12/17 08:03:13;;;;;;;7.67;5.43;;;5.60;92.00;;;;;;4895089;29;20212;-88
2020/12/17 08:05:40;;;;;;;10.97;6.40;;;5.60;92.10;;;;;;4905102;29;20213;-88
2020/12/17 08:08:06;;;;;;;12.47;7.73;;;;;;;;;;4902379;29;20220;-90
2020/12/17 08:10:40;;;;;;;11.87;6.57;;;5.70;92.00;;;;;;4910409;29;20188;-90
2020/12/17 08:13:06;;;;;;;9.67;6.30;;;;;;;;;;4910850;29;20175;-87
2020/12/17 08:15:33;;;;;;;10.43;6.57;;;5.80;91.40;;;;;;4903597;29;20201;-90
2020/12/17 08:17:59;;;;;;;11.37;6.60;;;;;;;;;;4903545;29;20196;-89
2020/12/17 08:20:26;;;;;;;12.80;7.23;;;5.80;90.70;;;;;;4905825;29;20207;-84
2020/12/17 08:22:55;;;;;;;12.47;6.83;;;5.90;90.90;;;;;;4895948;29;20221;-88
2020/12/17 08:25:21;;;;;;;12.27;7.17;;;;;;;;;;4884506;29;20213;-87
2020/12/17 08:27:47;;;;;;;13.43;7.17;;;5.80;91.40;;;;;;4901283;29;20199;-88
2020/12/17 08:30:14;;;;;;;7.63;5.40;;;;;;;;;;4902548;29;20196;-88
2020/12/17 08:33:09;;;;;;;12.20;6.73;;;6.00;90.60;;;;;;4899056;29;20200;-88
2020/12/17 08:35:35;;;;;;;8.03;5.27;;;6.00;90.60;;;;;;4899594;29;20267;-87
2020/12/17 08:38:01;;;;;;;9.60;5.60;;;;;;;;;;4891004;29;20206;-88
2020/12/17 08:40:28;;;;;;;8.87;6.03;;;6.10;90.50;;;;;;4898319;29;20204;-87
2020/12/17 08:43:09;;;;;;;8.63;6.33;;;6.10;90.70;;;;;;4902729;29;20243;-88
2020/12/17 08:45:40;;;;;;;14.63;6.27;;;6.10;90.80;;;;;;4903532;29;20346;-89
2020/12/17 08:48:14;;;;;;;11.77;6.63;;;6.00;91.10;;;;;;4897763;29;20221;-89
2020/12/17 08:50:40;;;;;;;10.43;6.23;;;5.90;91.50;;;;;;4891958;29;20209;-88
2020/12/17 08:53:29;;;;;;;12.43;7.23;;;5.90;91.50;;;;;;4903739;29;20251;-89
2020/12/17 08:56:05;;;;;;;11.00;6.77;;;5.90;91.50;;;;;;4900576;29;20209;-90
2020/12/17 08:58:31;;;;;;;8.33;6.37;;;5.90;91.70;;;;;;4899815;29;20189;-88
2020/12/17 09:00:57;;;;;;;10.90;6.87;;;;;;;;;;4893120;29;20581;-89
2020/12/17 09:03:25;;;;;;;11.20;6.57;;;;;;;;;;4895123;29;20304;-88
2020/12/17 09:06:05;;;;;;;13.03;6.80;;;6.20;91.90;;;;;;4895974;29;20245;-86
2020/12/17 09:08:31;;;;;;;13.80;7.23;;;6.20;91.90;;;;;;4896079;29;20184;-86
2020/12/17 09:10:56;;;;;;;12.03;7.40;;;6.20;91.90;;;;;;4909204;29;20283;-86
2020/12/17 09:13:22;;;;;;;10.50;6.87;;;6.30;91.70;;;;;;4902324;29;20192;-86
2020/12/17 09:15:59;;;;;;;9.50;6.10;;;6.30;91.60;;;;;;4903986;29;20203;-87
2020/12/17 09:18:29;;;;;;;9.90;6.43;;;6.30;91.30;;;;;;4889601;29;20209;-87
2020/12/17 09:21:10;;;;;;;9.23;5.43;;;6.30;91.00;;;;;;4899162;29;20208;-87
2020/12/17 09:23:39;;;;;;;7.83;5.80;;;6.30;91.10;;;;;;4894508;29;20268;-86
2020/12/17 09:26:13;;;;;;;8.13;5.33;;;6.30;90.90;;;;;;4900326;29;20232;-88
2020/12/17 09:29:16;;;;;;;8.80;5.30;;;6.30;91.40;;;;;;4902719;29;20235;-86
2020/12/17 09:31:42;;;;;;;8.43;5.17;;;6.20;91.60;;;;;;4901432;29;20325;-85
2020/12/17 09:34:10;;;;;;;8.07;5.83;;;6.30;91.70;;;;;;4899392;29;20216;-86
2020/12/17 09:36:37;;;;;;;7.37;5.00;;;6.20;92.00;;;;;;4908585;29;20207;-87
2020/12/17 09:39:09;;;;;;;9.80;6.80;;;6.30;92.10;;;;;;4892596;29;20693;-86
2020/12/17 09:41:35;;;;;;;9.77;5.97;;;6.30;92.20;;;;;;4898680;29;20232;-87
2020/12/17 09:44:01;;;;;;;10.83;7.30;;;;;;;;;;4894584;29;20202;-87
2020/12/17 09:46:41;;;;;;;9.13;6.63;;;6.30;92.30;;;;;;4893775;29;20201;-86
2020/12/17 09:49:07;;;;;;;10.50;6.40;;;6.30;92.40;;;;;;4898788;29;20699;-86
2020/12/17 09:51:34;;;;;;;9.07;6.23;;;6.40;92.40;;;;;;4914251;29;20200;-87
2020/12/17 09:54:02;;;;;;;10.37;6.63;;;6.40;92.40;;;;;;4906065;29;20205;-87
2020/12/17 09:56:28;;;;;;;7.20;6.00;;;;;;;;;;4896384;29;20603;-87
2020/12/17 09:58:54;;;;;;;12.93;7.97;;;6.30;93.00;;;;;;4904237;29;20196;-88
2020/12/17 10:01:20;;;;;;;5.97;3.87;;;6.30;92.70;;;;;;4899013;29;20203;-87
2020/12/17 10:03:46;;;;;;;6.33;5.53;;;;;;;;;;4903583;29;20204;-88
2020/12/17 10:06:12;;;;;;;10.90;6.63;;;6.10;93.70;;;;;;4893521;29;20214;-88
2020/12/17 10:08:37;;;;;;;8.90;5.53;;;6.10;94.00;;;;;;4904206;29;20177;-88
2020/12/17 10:11:07;;;;;;;10.83;6.83;;;6.10;94.10;;;;;;4919623;29;20236;-88
2020/12/17 10:13:33;;;;;;;12.20;7.37;;;6.20;94.50;;;;;;4916865;29;20522;-88
2020/12/17 10:15:59;;;;;;;11.13;6.57;;;6.20;94.20;;;;;;4904499;29;20248;-88
2020/12/17 10:18:25;;;;;;;13.07;7.93;;;6.20;94.60;;;;;;4925691;29;20194;-88
2020/12/17 10:20:50;;;;;;;11.13;6.40;;;6.20;94.20;;;;;;4891360;29;20681;-88
2020/12/17 10:23:16;;;;;;;8.83;6.30;;;;;;;;;;4902844;29;20219;-88
2020/12/17 10:25:42;;;;;;;11.47;7.43;;;;;;;;;;4902501;29;20231;-88
2020/12/17 10:28:08;;;;;;;9.50;7.10;;;6.40;94.10;;;;;;4901687;29;20280;-88
2020/12/17 10:30:34;;;;;;;10.73;6.73;;;6.40;94.30;;;;;;4911038;29;20203;-88
2020/12/17 10:33:00;;;;;;;14.33;6.40;;;;;;;;;;4908170;29;20664;-88
2020/12/17 10:35:26;;;;;;;11.97;7.30;;;6.40;94.30;;;;;;4910092;29;20191;-88
2020/12/17 10:37:52;;;;;;;10.63;6.80;;;;;;;;;;4909425;29;21708;-88
2020/12/17 10:40:19;;;;;;;12.30;6.97;;;;;;;;;;4922285;29;20196;-88
2020/12/17 10:42:45;;;;;;;8.33;5.07;;;;;;;;;;4909112;29;20712;-88
2020/12/17 10:45:11;;;;;;;11.50;7.40;;;;;;;;;;4893404;29;20221;-88
2020/12/17 10:47:37;;;;;;;8.20;5.50;;;6.50;93.90;;;;;;4889142;29;20205;-89
2020/12/17 10:50:05;;;;;;;8.27;5.87;;;6.50;94.30;;;;;;4887720;29;20198;-88
2020/12/17 10:52:31;;;;;;;11.43;7.57;;;;;;;;;;4897658;29;20208;-87
2020/12/17 10:54:57;;;;;;;9.10;5.60;;;;;;;;;;4898602;29;20200;-88
2020/12/17 10:57:23;;;;;;;11.13;8.57;;;6.60;94.00;;;;;;4905340;29;20184;-87
2020/12/17 10:59:50;;;;;;;12.70;8.17;;;;;;;;;;4900199;29;20192;-89
2020/12/17 11:02:16;;;;;;;7.90;5.57;;;6.60;94.10;;;;;;4887993;29;20206;-90
2020/12/17 11:04:42;;;;;;;9.93;6.93;;;6.80;94.40;;;;;;4902919;29;20244;-88
2020/12/17 11:07:08;;;;;;;9.87;6.87;;;;;;;;;;4902544;29;20212;-90
2020/12/17 11:09:35;;;;;;;10.30;6.80;;;;;;;;;;4903566;29;20240;-90
2020/12/17 11:12:00;;;;;;;3.83;3.07;;;6.80;93.80;;;;;;4894156;29;20202;-90
2020/12/17 11:14:26;;;;;;;11.93;7.80;;;;;;;;;;4902174;29;20200;-90
2020/12/17 11:16:52;;;;;;;8.53;6.57;;;6.80;93.90;;;;;;4897099;29;20618;-89
2020/12/17 11:19:19;;;;;;;5.77;4.53;;;6.80;94.10;;;;;;4906345;29;20211;-90
2020/12/17 11:21:45;;;;;;;9.43;6.37;;;;;;;;;;4905071;29;20209;-89
2020/12/17 11:24:13;;;;;;;12.33;7.27;;;6.80;94.30;;;;;;4899590;29;20192;-91
2020/12/17 11:26:43;;;;;;;9.20;6.13;;;6.80;94.30;;;;;;4905635;29;20287;-90
2020/12/17 11:29:09;;;;;;;10.50;6.23;;;;;;;;;;4903308;29;20200;-89
2020/12/17 11:31:35;;;;;;;5.77;4.27;;;;;;;;;;4907795;29;20249;-89
2020/12/17 11:34:01;;;;;;;2.83;2.43;;;6.90;93.60;;;;;;4899161;29;20208;-91
2020/12/17 11:36:27;;;;;;;11.23;7.00;;;;;;;;;;4893992;29;20199;-90
2020/12/17 11:38:53;;;;;;;6.13;5.07;;;7.10;92.60;;;;;;4903500;29;20203;-91
2020/12/17 11:41:19;;;;;;;9.80;7.00;;;7.20;92.60;;;;;;4892423;29;20564;-91
2020/12/17 11:43:45;;;;;;;10.20;6.67;;;;;;;;;;4890891;29;20258;-91
2020/12/17 11:46:16;;;;;;;11.50;6.53;;;7.50;92.10;;;;;;4901785;29;20188;-91
2020/12/17 11:48:42;;;;;;;15.30;7.77;;;7.80;91.70;;;;;;4903551;29;20253;-91
2020/12/17 11:51:08;;;;;;;8.57;6.97;;;;;;;;;;4906180;29;20188;-91
2020/12/17 11:53:34;;;;;;;11.90;7.53;;;;;;;;;;4904190;29;20182;-90
2020/12/17 11:55:59;;;;;;;13.93;7.73;;;8.20;90.40;;;;;;4909129;29;20339;-88
2020/12/17 11:58:27;;;;;;;11.63;8.30;;;8.30;87.70;;;;;;4896232;29;20193;-89
2020/12/17 12:00:54;;;;;;;9.20;6.70;;;8.30;89.40;;;;;;4894343;29;20204;-90
2020/12/17 12:03:20;;;;;;;10.77;7.10;;;;;;;;;;4894454;29;20221;-90
2020/12/17 12:05:46;;;;;;;10.30;7.03;;;;;;;;;;4901351;29;20246;-90
2020/12/17 12:08:12;;;;;;;12.30;6.23;;;;;;;;;;4902215;29;20715;-89
2020/12/17 12:10:38;;;;;;;11.10;7.33;;;;;;;;;;4899298;29;20215;-89
2020/12/17 12:13:04;;;;;;;8.00;6.27;;;;;;;;;;4899455;29;20198;-90
2020/12/17 12:15:30;;;;;;;9.07;6.07;;;;;;;;;;4913662;29;20194;-91
2020/12/17 12:17:57;;;;;;;9.37;5.87;;;;;;;;;;4896003;29;20196;-90
2020/12/17 12:20:26;;;;;;;9.33;7.37;;;;;;;;;;4894659;29;20548;-90
2020/12/17 12:22:52;;;;;;;9.70;7.37;;;8.90;88.10;;;;;;4902620;29;20241;-90
2020/12/17 12:25:17;;;;;;;11.47;7.20;;;9.10;85.80;;;;;;4889503;29;20208;-90
2020/12/17 12:27:45;;;;;;;8.07;6.60;;;;;;;;;;4902486;29;20209;-91
2020/12/17 12:30:11;;;;;;;7.27;5.47;;;;;;;;;;4893186;29;20195;-91
2020/12/17 12:32:37;;;;;;;8.47;6.77;;;;;;;;;;4892050;29;20296;-90
2020/12/17 12:35:03;;;;;;;8.10;6.40;;;;;;;;;;4899290;29;20247;-89
2020/12/17 12:37:29;;;;;;;10.17;7.00;;;;;;;;;;4904887;29;20176;-89
2020/12/17 12:39:55;;;;;;;9.67;6.67;;;10.40;78.00;;;;;;4902426;29;20270;-89
2020/12/17 12:42:24;;;;;;;9.47;6.67;;;;;;;;;;4907426;29;20248;-88
2020/12/17 12:44:56;;;;;;;9.90;6.17;;;;;;;;;;4903096;29;20195;-89
2020/12/17 12:47:23;;;;;;;7.23;5.67;;;;;;;;;;4905802;29;20274;-89
2020/12/17 12:49:50;;;;;;;9.27;6.90;;;9.20;81.10;;;;;;4899260;29;20206;-91
2020/12/17 12:52:16;;;;;;;8.87;6.87;;;;;;;;;;4899461;29;20204;-89
2020/12/17 12:54:43;;;;;;;8.03;5.37;;;9.00;82.30;;;;;;4900965;29;20205;-89
2020/12/17 12:57:10;;;;;;;9.33;7.17;;;;;;;;;;4903013;29;20212;-90
2020/12/17 12:59:36;;;;;;;8.97;6.03;;;;;;;;;;4901146;29;20184;-90
2020/12/17 13:02:01;;;;;;;9.23;6.40;;;8.60;87.80;;;;;;4908786;29;20195;-88
2020/12/17 13:04:47;;;;;;;7.67;5.57;;;;;;;;;;4918222;29;20204;-90
2020/12/17 13:07:13;;;;;;;8.10;5.77;;;;;;;;;;4901878;29;20222;-87
2020/12/17 13:09:43;;;;;;;9.07;6.67;;;;;;;;;;4901217;29;20193;-90
2020/12/17 13:12:09;;;;;;;10.63;6.57;;;;;;;;;;4898942;29;20212;-89
2020/12/17 13:14:35;;;;;;;8.20;6.60;;;;;;;;;;4897068;29;20657;-90
2020/12/17 13:17:04;;;;;;;9.23;6.63;;;;;;;;;;4894226;29;20291;-88
2020/12/17 13:19:31;;;;;;;10.13;6.13;;;8.50;89.50;;;;;;4902747;29;20195;-89
2020/12/17 13:21:57;;;;;;;11.00;6.33;;;;;;;;;;4902548;29;20191;-89
2020/12/17 13:24:23;;;;;;;11.50;7.23;;;;;;;;;;4916298;29;20187;-89
2020/12/17 13:26:49;;;;;;;10.07;7.40;;;;;;;;;;4897943;29;20200;-89
2020/12/17 13:29:15;;;;;;;7.13;5.83;;;8.90;88.10;;;;;;4912985;29;20247;-88